Quay, New Mexico
Current Conditions -  °F | °C
As of 1:53 AM on Monday 20 Oct 2014 (Local Time) from KTCC Reporting Station
Clear Clear  
Wind Chill: 54°   Ceiling: Unl
Heat Index: 54°   Visibility: 10mi
Dew Point: 49°   Wind: 7mph
Humidity: 83%   Direction: 240°WSW
Pressure: 30.1"   Gusts: NA
Location:  34.93°N, 103.76°W
Report Text: KTCC 200753Z AUTO 24006KT 10SM CLR 12/09 A3010 RMK AO2 SLP148 T01220094
Loading
Personal Weather Stations






























Interactive Weather Map
Tropical Storm Tracking
New forecast layout! Learn more

10-Day Weather Forecast

Advertisements
Track Severe Weather on mobile